sensor_id;sensor_type;location;lat;lon;timestamp;P1;durP1;ratioP1;P2;durP2;ratioP2
35324;SDS011;35135;47.510;19.036;2022-12-24T00:02:11;19.00;;;16.13;;
35324;SDS011;35135;47.510;19.036;2022-12-24T00:04:37;19.75;;;17.35;;
35324;SDS011;35135;47.510;19.036;2022-12-24T00:07:03;19.65;;;16.65;;
35324;SDS011;35135;47.510;19.036;2022-12-24T00:09:28;17.98;;;15.95;;
35324;SDS011;35135;47.510;19.036;2022-12-24T00:11:54;19.38;;;16.50;;
35324;SDS011;35135;47.510;19.036;2022-12-24T00:14:20;21.40;;;16.90;;
35324;SDS011;35135;47.510;19.036;2022-12-24T00:16:46;21.00;;;17.02;;
35324;SDS011;35135;47.510;19.036;2022-12-24T00:19:11;19.60;;;16.75;;
35324;SDS011;35135;47.510;19.036;2022-12-24T00:21:37;18.77;;;16.33;;
35324;SDS011;35135;47.510;19.036;2022-12-24T00:24:03;19.05;;;16.17;;
35324;SDS011;35135;47.510;19.036;2022-12-24T00:26:30;19.17;;;16.55;;
35324;SDS011;35135;47.510;19.036;2022-12-24T00:28:56;19.30;;;16.52;;
35324;SDS011;35135;47.510;19.036;2022-12-24T00:31:22;19.98;;;15.95;;
35324;SDS011;35135;47.510;19.036;2022-12-24T00:33:48;19.98;;;15.63;;
35324;SDS011;35135;47.510;19.036;2022-12-24T00:36:14;19.40;;;16.33;;
35324;SDS011;35135;47.510;19.036;2022-12-24T00:38:40;18.58;;;16.23;;
35324;SDS011;35135;47.510;19.036;2022-12-24T00:41:06;17.63;;;15.00;;
35324;SDS011;35135;47.510;19.036;2022-12-24T00:43:53;18.75;;;15.27;;
35324;SDS011;35135;47.510;19.036;2022-12-24T00:46:20;18.73;;;16.05;;
35324;SDS011;35135;47.510;19.036;2022-12-24T00:48:47;16.70;;;14.48;;
35324;SDS011;35135;47.510;19.036;2022-12-24T00:51:13;18.60;;;15.77;;
35324;SDS011;35135;47.510;19.036;2022-12-24T00:53:39;19.33;;;16.20;;
35324;SDS011;35135;47.510;19.036;2022-12-24T00:56:05;17.02;;;15.23;;
35324;SDS011;35135;47.510;19.036;2022-12-24T00:58:31;18.13;;;15.48;;
35324;SDS011;35135;47.510;19.036;2022-12-24T01:00:57;17.88;;;15.50;;
35324;SDS011;35135;47.510;19.036;2022-12-24T01:03:23;17.58;;;15.70;;
35324;SDS011;35135;47.510;19.036;2022-12-24T01:05:59;18.50;;;15.70;;
35324;SDS011;35135;47.510;19.036;2022-12-24T01:08:33;17.48;;;15.65;;
35324;SDS011;35135;47.510;19.036;2022-12-24T01:10:59;17.90;;;15.93;;
35324;SDS011;35135;47.510;19.036;2022-12-24T01:13:26;18.15;;;15.75;;
35324;SDS011;35135;47.510;19.036;2022-12-24T01:15:51;17.98;;;15.45;;
35324;SDS011;35135;47.510;19.036;2022-12-24T01:18:17;16.83;;;15.00;;
35324;SDS011;35135;47.510;19.036;2022-12-24T01:20:43;17.98;;;15.45;;
35324;SDS011;35135;47.510;19.036;2022-12-24T01:23:09;18.42;;;15.00;;
35324;SDS011;35135;47.510;19.036;2022-12-24T01:25:36;15.95;;;14.25;;
35324;SDS011;35135;47.510;19.036;2022-12-24T01:28:02;19.85;;;15.93;;
35324;SDS011;35135;47.510;19.036;2022-12-24T01:30:28;15.98;;;14.32;;
35324;SDS011;35135;47.510;19.036;2022-12-24T01:32:54;16.88;;;14.68;;
35324;SDS011;35135;47.510;19.036;2022-12-24T01:35:20;16.70;;;14.90;;
35324;SDS011;35135;47.510;19.036;2022-12-24T01:37:45;15.95;;;13.88;;
35324;SDS011;35135;47.510;19.036;2022-12-24T01:40:13;16.92;;;15.13;;
35324;SDS011;35135;47.510;19.036;2022-12-24T01:42:59;15.80;;;14.23;;
35324;SDS011;35135;47.510;19.036;2022-12-24T01:45:45;16.83;;;15.02;;
35324;SDS011;35135;47.510;19.036;2022-12-24T01:48:58;15.98;;;14.32;;
35324;SDS011;35135;47.510;19.036;2022-12-24T01:51:13;15.85;;;14.02;;
35324;SDS011;35135;47.510;19.036;2022-12-24T01:53:46;16.10;;;14.43;;
35324;SDS011;35135;47.510;19.036;2022-12-24T01:56:16;16.98;;;15.18;;
35324;SDS011;35135;47.510;19.036;2022-12-24T01:58:45;15.38;;;13.77;;
35324;SDS011;35135;47.510;19.036;2022-12-24T02:01:15;17.45;;;14.68;;
35324;SDS011;35135;47.510;19.036;2022-12-24T02:03:41;16.23;;;14.52;;
35324;SDS011;35135;47.510;19.036;2022-12-24T02:06:07;16.40;;;14.48;;
35324;SDS011;35135;47.510;19.036;2022-12-24T02:08:36;15.70;;;14.10;;
35324;SDS011;35135;47.510;19.036;2022-12-24T02:11:12;16.38;;;14.63;;
35324;SDS011;35135;47.510;19.036;2022-12-24T02:13:38;16.00;;;14.32;;
35324;SDS011;35135;47.510;19.036;2022-12-24T02:18:59;15.38;;;13.77;;
35324;SDS011;35135;47.510;19.036;2022-12-24T02:27:32;15.07;;;13.30;;
35324;SDS011;35135;47.510;19.036;2022-12-24T02:30:40;16.33;;;14.63;;
35324;SDS011;35135;47.510;19.036;2022-12-24T02:33:28;17.17;;;14.73;;
35324;SDS011;35135;47.510;19.036;2022-12-24T02:38:43;15.30;;;13.70;;
35324;SDS011;35135;47.510;19.036;2022-12-24T02:44:33;15.80;;;13.60;;
35324;SDS011;35135;47.510;19.036;2022-12-24T02:47:12;15.32;;;13.73;;
35324;SDS011;35135;47.510;19.036;2022-12-24T02:49:42;14.75;;;13.25;;
35324;SDS011;35135;47.510;19.036;2022-12-24T02:52:28;15.02;;;13.52;;
35324;SDS011;35135;47.510;19.036;2022-12-24T02:54:56;15.88;;;14.27;;
35324;SDS011;35135;47.510;19.036;2022-12-24T03:00:23;14.85;;;13.30;;
35324;SDS011;35135;47.510;19.036;2022-12-24T03:03:04;14.38;;;12.93;;
35324;SDS011;35135;47.510;19.036;2022-12-24T03:05:58;14.85;;;13.35;;
35324;SDS011;35135;47.510;19.036;2022-12-24T03:11:12;14.25;;;12.85;;
35324;SDS011;35135;47.510;19.036;2022-12-24T03:13:40;15.00;;;13.40;;
35324;SDS011;35135;47.510;19.036;2022-12-24T03:16:07;14.45;;;12.95;;
35324;SDS011;35135;47.510;19.036;2022-12-24T03:18:37;14.80;;;13.18;;
35324;SDS011;35135;47.510;19.036;2022-12-24T03:21:09;14.90;;;13.35;;
35324;SDS011;35135;47.510;19.036;2022-12-24T03:23:44;14.13;;;12.73;;
35324;SDS011;35135;47.510;19.036;2022-12-24T03:26:11;14.80;;;13.25;;
35324;SDS011;35135;47.510;19.036;2022-12-24T03:28:40;14.27;;;12.77;;
35324;SDS011;35135;47.510;19.036;2022-12-24T03:31:06;14.13;;;12.63;;
35324;SDS011;35135;47.510;19.036;2022-12-24T03:33:34;13.77;;;12.27;;
35324;SDS011;35135;47.510;19.036;2022-12-24T03:35:59;14.02;;;12.52;;
35324;SDS011;35135;47.510;19.036;2022-12-24T03:38:25;13.68;;;12.05;;
35324;SDS011;35135;47.510;19.036;2022-12-24T03:40:51;13.90;;;12.50;;
35324;SDS011;35135;47.510;19.036;2022-12-24T03:43:17;14.13;;;12.73;;
35324;SDS011;35135;47.510;19.036;2022-12-24T03:45:42;13.13;;;11.73;;
35324;SDS011;35135;47.510;19.036;2022-12-24T03:48:08;13.77;;;12.38;;
35324;SDS011;35135;47.510;19.036;2022-12-24T03:50:34;13.93;;;12.48;;
35324;SDS011;35135;47.510;19.036;2022-12-24T03:52:59;13.95;;;12.55;;
35324;SDS011;35135;47.510;19.036;2022-12-24T03:55:25;12.63;;;11.32;;
35324;SDS011;35135;47.510;19.036;2022-12-24T03:57:50;13.30;;;11.98;;
35324;SDS011;35135;47.510;19.036;2022-12-24T04:00:16;12.73;;;11.48;;
35324;SDS011;35135;47.510;19.036;2022-12-24T04:02:42;13.52;;;12.23;;
35324;SDS011;35135;47.510;19.036;2022-12-24T04:05:11;12.80;;;11.50;;
35324;SDS011;35135;47.510;19.036;2022-12-24T04:07:42;13.10;;;11.80;;
35324;SDS011;35135;47.510;19.036;2022-12-24T04:10:08;12.90;;;11.60;;
35324;SDS011;35135;47.510;19.036;2022-12-24T04:12:34;13.55;;;12.13;;
35324;SDS011;35135;47.510;19.036;2022-12-24T04:15:00;12.80;;;11.50;;
35324;SDS011;35135;47.510;19.036;2022-12-24T04:17:26;13.98;;;12.68;;
35324;SDS011;35135;47.510;19.036;2022-12-24T04:19:51;13.68;;;12.30;;
35324;SDS011;35135;47.510;19.036;2022-12-24T04:22:17;13.27;;;11.95;;
35324;SDS011;35135;47.510;19.036;2022-12-24T04:24:43;13.63;;;12.23;;
35324;SDS011;35135;47.510;19.036;2022-12-24T04:27:08;12.50;;;11.27;;
35324;SDS011;35135;47.510;19.036;2022-12-24T04:29:34;13.07;;;11.50;;
35324;SDS011;35135;47.510;19.036;2022-12-24T04:32:00;12.68;;;11.35;;
35324;SDS011;35135;47.510;19.036;2022-12-24T04:34:25;13.45;;;12.05;;
35324;SDS011;35135;47.510;19.036;2022-12-24T04:36:51;12.13;;;11.02;;
35324;SDS011;35135;47.510;19.036;2022-12-24T04:39:17;12.45;;;11.23;;
35324;SDS011;35135;47.510;19.036;2022-12-24T04:41:42;12.40;;;11.07;;
35324;SDS011;35135;47.510;19.036;2022-12-24T04:44:08;12.55;;;11.27;;
35324;SDS011;35135;47.510;19.036;2022-12-24T04:46:34;11.65;;;10.55;;
35324;SDS011;35135;47.510;19.036;2022-12-24T04:49:00;11.70;;;10.60;;
35324;SDS011;35135;47.510;19.036;2022-12-24T04:51:26;11.50;;;10.30;;
35324;SDS011;35135;47.510;19.036;2022-12-24T04:53:53;11.13;;;10.10;;
35324;SDS011;35135;47.510;19.036;2022-12-24T04:56:20;11.43;;;10.32;;
35324;SDS011;35135;47.510;19.036;2022-12-24T04:58:48;11.65;;;10.55;;
35324;SDS011;35135;47.510;19.036;2022-12-24T05:01:15;11.05;;;10.05;;
35324;SDS011;35135;47.510;19.036;2022-12-24T05:03:43;12.10;;;10.90;;
35324;SDS011;35135;47.510;19.036;2022-12-24T05:06:13;11.18;;;10.07;;
35324;SDS011;35135;47.510;19.036;2022-12-24T05:08:40;11.18;;;10.07;;
35324;SDS011;35135;47.510;19.036;2022-12-24T05:11:07;10.50;;;9.40;;
35324;SDS011;35135;47.510;19.036;2022-12-24T05:13:34;10.18;;;9.18;;
35324;SDS011;35135;47.510;19.036;2022-12-24T05:16:00;10.48;;;9.50;;
35324;SDS011;35135;47.510;19.036;2022-12-24T05:18:26;10.30;;;9.30;;
35324;SDS011;35135;47.510;19.036;2022-12-24T05:20:51;10.07;;;9.07;;
35324;SDS011;35135;47.510;19.036;2022-12-24T05:23:18;9.93;;;8.93;;
35324;SDS011;35135;47.510;19.036;2022-12-24T05:26:17;9.70;;;8.80;;
35324;SDS011;35135;47.510;19.036;2022-12-24T05:28:53;9.50;;;8.52;;
35324;SDS011;35135;47.510;19.036;2022-12-24T05:31:21;9.32;;;8.52;;
35324;SDS011;35135;47.510;19.036;2022-12-24T05:33:47;9.20;;;8.30;;
35324;SDS011;35135;47.510;19.036;2022-12-24T05:36:13;9.30;;;8.40;;
35324;SDS011;35135;47.510;19.036;2022-12-24T05:38:40;9.23;;;8.32;;
35324;SDS011;35135;47.510;19.036;2022-12-24T05:41:06;8.45;;;7.65;;
35324;SDS011;35135;47.510;19.036;2022-12-24T05:43:33;7.68;;;6.97;;
35324;SDS011;35135;47.510;19.036;2022-12-24T05:46:00;8.98;;;8.05;;
35324;SDS011;35135;47.510;19.036;2022-12-24T05:48:27;8.90;;;8.10;;
35324;SDS011;35135;47.510;19.036;2022-12-24T05:50:53;8.30;;;7.50;;
35324;SDS011;35135;47.510;19.036;2022-12-24T05:53:19;7.90;;;7.20;;
35324;SDS011;35135;47.510;19.036;2022-12-24T05:55:45;7.88;;;7.15;;
35324;SDS011;35135;47.510;19.036;2022-12-24T05:58:11;8.15;;;7.45;;
35324;SDS011;35135;47.510;19.036;2022-12-24T06:00:37;8.88;;;7.95;;
35324;SDS011;35135;47.510;19.036;2022-12-24T06:03:03;8.45;;;7.60;;
35324;SDS011;35135;47.510;19.036;2022-12-24T06:05:28;7.82;;;7.13;;
35324;SDS011;35135;47.510;19.036;2022-12-24T06:07:54;8.13;;;7.32;;
35324;SDS011;35135;47.510;19.036;2022-12-24T06:10:20;8.02;;;7.32;;
35324;SDS011;35135;47.510;19.036;2022-12-24T06:12:46;8.27;;;7.47;;
35324;SDS011;35135;47.510;19.036;2022-12-24T06:15:11;8.15;;;7.35;;
35324;SDS011;35135;47.510;19.036;2022-12-24T06:17:37;7.35;;;6.65;;
35324;SDS011;35135;47.510;19.036;2022-12-24T06:20:03;7.40;;;6.68;;
35324;SDS011;35135;47.510;19.036;2022-12-24T06:22:29;7.57;;;6.80;;
35324;SDS011;35135;47.510;19.036;2022-12-24T06:24:55;7.68;;;6.88;;
35324;SDS011;35135;47.510;19.036;2022-12-24T06:27:20;7.32;;;6.63;;
35324;SDS011;35135;47.510;19.036;2022-12-24T06:29:46;7.40;;;6.70;;
35324;SDS011;35135;47.510;19.036;2022-12-24T06:32:12;7.93;;;7.22;;
35324;SDS011;35135;47.510;19.036;2022-12-24T06:34:37;7.20;;;6.53;;
35324;SDS011;35135;47.510;19.036;2022-12-24T06:37:03;6.65;;;6.05;;
35324;SDS011;35135;47.510;19.036;2022-12-24T06:39:29;7.07;;;6.38;;
35324;SDS011;35135;47.510;19.036;2022-12-24T06:41:54;7.35;;;6.65;;
35324;SDS011;35135;47.510;19.036;2022-12-24T06:44:20;7.70;;;6.50;;
35324;SDS011;35135;47.510;19.036;2022-12-24T06:46:46;6.90;;;6.30;;
35324;SDS011;35135;47.510;19.036;2022-12-24T06:49:11;6.97;;;6.20;;
35324;SDS011;35135;47.510;19.036;2022-12-24T06:51:37;7.03;;;6.38;;
35324;SDS011;35135;47.510;19.036;2022-12-24T06:54:03;6.65;;;5.85;;
35324;SDS011;35135;47.510;19.036;2022-12-24T06:56:28;6.70;;;6.10;;
35324;SDS011;35135;47.510;19.036;2022-12-24T06:58:54;6.95;;;6.35;;
35324;SDS011;35135;47.510;19.036;2022-12-24T07:01:20;6.57;;;5.97;;
35324;SDS011;35135;47.510;19.036;2022-12-24T07:03:45;6.57;;;5.88;;
35324;SDS011;35135;47.510;19.036;2022-12-24T07:06:29;6.13;;;5.47;;
35324;SDS011;35135;47.510;19.036;2022-12-24T07:08:55;6.40;;;5.80;;
35324;SDS011;35135;47.510;19.036;2022-12-24T07:11:22;6.80;;;6.20;;
35324;SDS011;35135;47.510;19.036;2022-12-24T07:13:49;6.32;;;5.72;;
35324;SDS011;35135;47.510;19.036;2022-12-24T07:16:14;6.30;;;5.70;;
35324;SDS011;35135;47.510;19.036;2022-12-24T07:18:41;5.50;;;5.00;;
35324;SDS011;35135;47.510;19.036;2022-12-24T07:21:07;6.65;;;5.57;;
35324;SDS011;35135;47.510;19.036;2022-12-24T07:23:33;5.43;;;4.93;;
35324;SDS011;35135;47.510;19.036;2022-12-24T07:26:02;6.57;;;5.85;;
35324;SDS011;35135;47.510;19.036;2022-12-24T07:28:29;6.13;;;5.53;;
35324;SDS011;35135;47.510;19.036;2022-12-24T07:30:56;6.35;;;5.70;;
35324;SDS011;35135;47.510;19.036;2022-12-24T07:33:23;6.25;;;5.65;;
35324;SDS011;35135;47.510;19.036;2022-12-24T07:35:56;5.88;;;5.28;;
35324;SDS011;35135;47.510;19.036;2022-12-24T07:38:24;7.72;;;5.55;;
35324;SDS011;35135;47.510;19.036;2022-12-24T07:40:49;5.72;;;5.22;;
35324;SDS011;35135;47.510;19.036;2022-12-24T07:43:15;5.90;;;5.25;;
35324;SDS011;35135;47.510;19.036;2022-12-24T07:45:41;5.90;;;5.20;;
35324;SDS011;35135;47.510;19.036;2022-12-24T07:48:07;7.55;;;5.13;;
35324;SDS011;35135;47.510;19.036;2022-12-24T07:50:32;6.03;;;4.97;;
35324;SDS011;35135;47.510;19.036;2022-12-24T07:52:58;6.28;;;5.05;;
35324;SDS011;35135;47.510;19.036;2022-12-24T07:55:23;6.18;;;5.55;;
35324;SDS011;35135;47.510;19.036;2022-12-24T07:57:49;5.18;;;4.68;;
35324;SDS011;35135;47.510;19.036;2022-12-24T08:00:15;6.78;;;5.32;;
35324;SDS011;35135;47.510;19.036;2022-12-24T08:02:41;5.60;;;4.88;;
35324;SDS011;35135;47.510;19.036;2022-12-24T08:05:07;5.20;;;4.70;;
35324;SDS011;35135;47.510;19.036;2022-12-24T08:07:32;6.45;;;4.65;;
35324;SDS011;35135;47.510;19.036;2022-12-24T08:09:58;6.70;;;5.35;;
35324;SDS011;35135;47.510;19.036;2022-12-24T08:12:25;6.28;;;4.82;;
35324;SDS011;35135;47.510;19.036;2022-12-24T08:14:50;5.40;;;4.88;;
35324;SDS011;35135;47.510;19.036;2022-12-24T08:17:16;5.85;;;5.35;;
35324;SDS011;35135;47.510;19.036;2022-12-24T08:19:42;5.45;;;4.85;;
35324;SDS011;35135;47.510;19.036;2022-12-24T08:22:08;7.88;;;5.38;;
35324;SDS011;35135;47.510;19.036;2022-12-24T08:24:33;8.52;;;5.70;;
35324;SDS011;35135;47.510;19.036;2022-12-24T08:26:59;8.20;;;5.15;;
35324;SDS011;35135;47.510;19.036;2022-12-24T08:29:25;9.07;;;4.53;;
35324;SDS011;35135;47.510;19.036;2022-12-24T08:31:50;11.40;;;5.47;;
35324;SDS011;35135;47.510;19.036;2022-12-24T08:34:16;8.20;;;5.05;;
35324;SDS011;35135;47.510;19.036;2022-12-24T08:36:42;9.18;;;5.20;;
35324;SDS011;35135;47.510;19.036;2022-12-24T08:39:08;10.32;;;4.95;;
35324;SDS011;35135;47.510;19.036;2022-12-24T08:41:34;10.57;;;5.00;;
35324;SDS011;35135;47.510;19.036;2022-12-24T08:44:00;7.72;;;4.88;;
35324;SDS011;35135;47.510;19.036;2022-12-24T08:46:25;8.68;;;5.63;;
35324;SDS011;35135;47.510;19.036;2022-12-24T08:48:51;7.78;;;4.60;;
35324;SDS011;35135;47.510;19.036;2022-12-24T08:51:17;12.30;;;5.30;;
35324;SDS011;35135;47.510;19.036;2022-12-24T08:53:43;7.15;;;5.47;;
35324;SDS011;35135;47.510;19.036;2022-12-24T08:56:09;12.25;;;5.78;;
35324;SDS011;35135;47.510;19.036;2022-12-24T08:58:36;8.43;;;6.13;;
35324;SDS011;35135;47.510;19.036;2022-12-24T09:01:09;9.23;;;5.72;;
35324;SDS011;35135;47.510;19.036;2022-12-24T09:03:36;7.93;;;5.57;;
35324;SDS011;35135;47.510;19.036;2022-12-24T09:06:03;8.07;;;5.55;;
35324;SDS011;35135;47.510;19.036;2022-12-24T09:08:29;11.23;;;5.32;;
35324;SDS011;35135;47.510;19.036;2022-12-24T09:10:55;7.18;;;5.15;;
35324;SDS011;35135;47.510;19.036;2022-12-24T09:13:26;6.85;;;5.22;;
35324;SDS011;35135;47.510;19.036;2022-12-24T09:15:53;10.20;;;5.50;;
35324;SDS011;35135;47.510;19.036;2022-12-24T09:18:19;9.27;;;5.10;;
35324;SDS011;35135;47.510;19.036;2022-12-24T09:20:45;7.95;;;4.88;;
35324;SDS011;35135;47.510;19.036;2022-12-24T09:23:11;6.68;;;4.90;;
35324;SDS011;35135;47.510;19.036;2022-12-24T09:25:40;7.82;;;5.07;;
35324;SDS011;35135;47.510;19.036;2022-12-24T09:28:06;6.10;;;4.90;;
35324;SDS011;35135;47.510;19.036;2022-12-24T09:30:32;6.60;;;4.80;;
35324;SDS011;35135;47.510;19.036;2022-12-24T09:32:58;5.95;;;4.90;;
35324;SDS011;35135;47.510;19.036;2022-12-24T09:35:23;7.68;;;4.80;;
35324;SDS011;35135;47.510;19.036;2022-12-24T09:37:49;5.85;;;4.80;;
35324;SDS011;35135;47.510;19.036;2022-12-24T09:40:28;4.63;;;4.15;;
35324;SDS011;35135;47.510;19.036;2022-12-24T09:43:00;6.88;;;4.57;;
35324;SDS011;35135;47.510;19.036;2022-12-24T09:48:21;5.95;;;4.70;;
35324;SDS011;35135;47.510;19.036;2022-12-24T09:50:53;6.83;;;5.47;;
35324;SDS011;35135;47.510;19.036;2022-12-24T09:53:23;6.63;;;4.70;;
35324;SDS011;35135;47.510;19.036;2022-12-24T09:55:52;6.90;;;4.65;;
35324;SDS011;35135;47.510;19.036;2022-12-24T09:58:33;5.35;;;4.15;;
35324;SDS011;35135;47.510;19.036;2022-12-24T10:01:02;6.22;;;4.43;;
35324;SDS011;35135;47.510;19.036;2022-12-24T10:03:28;6.53;;;4.82;;
35324;SDS011;35135;47.510;19.036;2022-12-24T10:25:01;5.25;;;3.92;;
35324;SDS011;35135;47.510;19.036;2022-12-24T10:27:38;4.53;;;4.13;;
35324;SDS011;35135;47.510;19.036;2022-12-24T10:30:17;6.95;;;4.22;;
35324;SDS011;35135;47.510;19.036;2022-12-24T10:32:49;4.15;;;3.42;;
35324;SDS011;35135;47.510;19.036;2022-12-24T10:35:18;6.03;;;3.95;;
35324;SDS011;35135;47.510;19.036;2022-12-24T10:37:50;5.60;;;4.68;;
35324;SDS011;35135;47.510;19.036;2022-12-24T10:40:27;5.03;;;3.97;;
35324;SDS011;35135;47.510;19.036;2022-12-24T10:43:00;4.43;;;4.03;;
35324;SDS011;35135;47.510;19.036;2022-12-24T10:45:29;6.97;;;4.03;;
35324;SDS011;35135;47.510;19.036;2022-12-24T10:48:03;5.30;;;3.70;;
35324;SDS011;35135;47.510;19.036;2022-12-24T10:50:52;4.50;;;3.88;;
35324;SDS011;35135;47.510;19.036;2022-12-24T10:53:23;4.13;;;3.72;;
35324;SDS011;35135;47.510;19.036;2022-12-24T10:56:13;4.10;;;3.22;;
35324;SDS011;35135;47.510;19.036;2022-12-24T10:58:44;4.97;;;3.60;;
35324;SDS011;35135;47.510;19.036;2022-12-24T11:01:14;3.92;;;3.45;;
35324;SDS011;35135;47.510;19.036;2022-12-24T11:03:40;3.55;;;3.20;;
35324;SDS011;35135;47.510;19.036;2022-12-24T11:08:42;4.28;;;3.58;;
35324;SDS011;35135;47.510;19.036;2022-12-24T11:11:10;4.00;;;3.60;;
35324;SDS011;35135;47.510;19.036;2022-12-24T11:13:38;4.15;;;3.47;;
35324;SDS011;35135;47.510;19.036;2022-12-24T11:19:04;3.90;;;3.50;;
35324;SDS011;35135;47.510;19.036;2022-12-24T11:21:38;3.92;;;3.38;;
35324;SDS011;35135;47.510;19.036;2022-12-24T11:26:37;3.67;;;3.30;;
35324;SDS011;35135;47.510;19.036;2022-12-24T11:32:02;4.63;;;3.53;;
35324;SDS011;35135;47.510;19.036;2022-12-24T11:34:41;3.42;;;3.03;;
35324;SDS011;35135;47.510;19.036;2022-12-24T11:39:37;4.38;;;3.03;;
35324;SDS011;35135;47.510;19.036;2022-12-24T11:42:05;4.50;;;3.30;;
35324;SDS011;35135;47.510;19.036;2022-12-24T11:44:31;3.80;;;3.17;;
35324;SDS011;35135;47.510;19.036;2022-12-24T11:46:57;4.25;;;3.33;;
35324;SDS011;35135;47.510;19.036;2022-12-24T11:49:24;3.80;;;3.40;;
35324;SDS011;35135;47.510;19.036;2022-12-24T11:52:09;3.60;;;3.30;;
35324;SDS011;35135;47.510;19.036;2022-12-24T11:54:58;4.03;;;2.72;;
35324;SDS011;35135;47.510;19.036;2022-12-24T11:57:21;4.63;;;3.22;;
35324;SDS011;35135;47.510;19.036;2022-12-24T11:59:52;4.40;;;2.85;;
35324;SDS011;35135;47.510;19.036;2022-12-24T12:05:15;3.72;;;2.90;;
35324;SDS011;35135;47.510;19.036;2022-12-24T12:08:09;3.65;;;3.05;;
35324;SDS011;35135;47.510;19.036;2022-12-24T12:10:42;3.00;;;2.53;;
35324;SDS011;35135;47.510;19.036;2022-12-24T12:13:17;3.40;;;2.53;;
35324;SDS011;35135;47.510;19.036;2022-12-24T12:18:45;3.83;;;2.90;;
35324;SDS011;35135;47.510;19.036;2022-12-24T12:21:18;3.65;;;2.50;;
35324;SDS011;35135;47.510;19.036;2022-12-24T12:23:51;3.40;;;2.67;;
35324;SDS011;35135;47.510;19.036;2022-12-24T12:26:26;3.40;;;2.75;;
35324;SDS011;35135;47.510;19.036;2022-12-24T12:28:54;3.00;;;2.40;;
35324;SDS011;35135;47.510;19.036;2022-12-24T12:31:39;3.00;;;2.53;;
35324;SDS011;35135;47.510;19.036;2022-12-24T12:34:12;3.65;;;2.70;;
35324;SDS011;35135;47.510;19.036;2022-12-24T12:36:45;2.95;;;2.53;;
35324;SDS011;35135;47.510;19.036;2022-12-24T12:39:18;2.80;;;2.35;;
35324;SDS011;35135;47.510;19.036;2022-12-24T12:41:55;2.72;;;2.33;;
35324;SDS011;35135;47.510;19.036;2022-12-24T13:01:07;3.00;;;2.13;;
35324;SDS011;35135;47.510;19.036;2022-12-24T13:23:17;2.35;;;1.98;;
35324;SDS011;35135;47.510;19.036;2022-12-24T13:25:40;3.20;;;1.90;;
35324;SDS011;35135;47.510;19.036;2022-12-24T13:28:29;2.70;;;2.00;;
35324;SDS011;35135;47.510;19.036;2022-12-24T13:36:04;2.58;;;1.98;;
35324;SDS011;35135;47.510;19.036;2022-12-24T13:38:40;2.13;;;1.73;;
35324;SDS011;35135;47.510;19.036;2022-12-24T13:44:03;3.90;;;2.20;;
35324;SDS011;35135;47.510;19.036;2022-12-24T13:49:39;2.75;;;1.83;;
35324;SDS011;35135;47.510;19.036;2022-12-24T13:54:39;2.78;;;1.90;;
35324;SDS011;35135;47.510;19.036;2022-12-24T13:57:25;2.55;;;2.05;;
35324;SDS011;35135;47.510;19.036;2022-12-24T14:08:32;2.08;;;1.70;;
35324;SDS011;35135;47.510;19.036;2022-12-24T14:11:02;1.80;;;1.55;;
35324;SDS011;35135;47.510;19.036;2022-12-24T14:16:02;2.90;;;1.92;;
35324;SDS011;35135;47.510;19.036;2022-12-24T14:18:29;1.98;;;1.67;;
35324;SDS011;35135;47.510;19.036;2022-12-24T14:20:58;2.45;;;1.77;;
35324;SDS011;35135;47.510;19.036;2022-12-24T14:26:00;2.20;;;1.67;;
35324;SDS011;35135;47.510;19.036;2022-12-24T14:28:33;1.88;;;1.55;;
35324;SDS011;35135;47.510;19.036;2022-12-24T14:31:04;2.25;;;1.50;;
35324;SDS011;35135;47.510;19.036;2022-12-24T14:33:37;1.58;;;1.38;;
35324;SDS011;35135;47.510;19.036;2022-12-24T14:36:02;2.10;;;1.70;;
35324;SDS011;35135;47.510;19.036;2022-12-24T14:38:28;2.28;;;1.70;;
35324;SDS011;35135;47.510;19.036;2022-12-24T14:46:22;2.67;;;1.70;;
35324;SDS011;35135;47.510;19.036;2022-12-24T14:54:36;2.55;;;1.50;;
35324;SDS011;35135;47.510;19.036;2022-12-24T14:57:24;1.60;;;1.20;;
35324;SDS011;35135;47.510;19.036;2022-12-24T14:59:57;2.25;;;1.45;;
35324;SDS011;35135;47.510;19.036;2022-12-24T15:05:18;1.60;;;1.30;;
35324;SDS011;35135;47.510;19.036;2022-12-24T15:10:25;1.67;;;1.40;;
35324;SDS011;35135;47.510;19.036;2022-12-24T15:12:51;1.90;;;1.30;;
35324;SDS011;35135;47.510;19.036;2022-12-24T15:15:18;1.85;;;1.33;;
35324;SDS011;35135;47.510;19.036;2022-12-24T15:17:44;2.03;;;1.42;;
35324;SDS011;35135;47.510;19.036;2022-12-24T15:20:14;2.47;;;1.42;;
35324;SDS011;35135;47.510;19.036;2022-12-24T15:22:42;1.90;;;1.40;;
35324;SDS011;35135;47.510;19.036;2022-12-24T15:25:19;1.60;;;1.20;;
35324;SDS011;35135;47.510;19.036;2022-12-24T15:27:50;2.30;;;1.40;;
35324;SDS011;35135;47.510;19.036;2022-12-24T15:30:18;2.42;;;1.50;;
35324;SDS011;35135;47.510;19.036;2022-12-24T15:32:46;1.45;;;1.10;;
35324;SDS011;35135;47.510;19.036;2022-12-24T15:35:34;1.35;;;1.10;;
35324;SDS011;35135;47.510;19.036;2022-12-24T15:38:18;2.38;;;1.33;;
35324;SDS011;35135;47.510;19.036;2022-12-24T15:40:47;2.28;;;1.40;;
35324;SDS011;35135;47.510;19.036;2022-12-24T15:43:13;2.88;;;1.50;;
35324;SDS011;35135;47.510;19.036;2022-12-24T15:45:40;1.88;;;1.20;;
35324;SDS011;35135;47.510;19.036;2022-12-24T15:48:10;2.20;;;1.30;;
35324;SDS011;35135;47.510;19.036;2022-12-24T15:50:45;2.38;;;1.33;;
35324;SDS011;35135;47.510;19.036;2022-12-24T15:53:14;1.70;;;1.20;;
35324;SDS011;35135;47.510;19.036;2022-12-24T15:55:45;1.20;;;0.98;;
35324;SDS011;35135;47.510;19.036;2022-12-24T15:58:15;2.20;;;1.10;;
35324;SDS011;35135;47.510;19.036;2022-12-24T16:01:00;1.85;;;1.20;;
35324;SDS011;35135;47.510;19.036;2022-12-24T16:06:13;1.75;;;1.30;;
35324;SDS011;35135;47.510;19.036;2022-12-24T16:08:40;2.65;;;1.33;;
35324;SDS011;35135;47.510;19.036;2022-12-24T16:16:15;1.60;;;1.23;;
35324;SDS011;35135;47.510;19.036;2022-12-24T16:21:19;1.85;;;1.27;;
35324;SDS011;35135;47.510;19.036;2022-12-24T16:23:54;1.83;;;1.00;;
35324;SDS011;35135;47.510;19.036;2022-12-24T16:26:31;1.67;;;1.10;;
35324;SDS011;35135;47.510;19.036;2022-12-24T16:28:58;1.77;;;1.08;;
35324;SDS011;35135;47.510;19.036;2022-12-24T16:31:30;1.33;;;1.02;;
35324;SDS011;35135;47.510;19.036;2022-12-24T16:34:01;1.45;;;1.15;;
35324;SDS011;35135;47.510;19.036;2022-12-24T16:36:28;1.20;;;0.90;;
35324;SDS011;35135;47.510;19.036;2022-12-24T16:38:55;1.88;;;1.15;;
35324;SDS011;35135;47.510;19.036;2022-12-24T16:41:40;1.67;;;1.10;;
35324;SDS011;35135;47.510;19.036;2022-12-24T16:44:24;1.42;;;1.00;;
35324;SDS011;35135;47.510;19.036;2022-12-24T16:46:51;2.58;;;1.20;;
35324;SDS011;35135;47.510;19.036;2022-12-24T16:49:17;1.17;;;0.82;;
35324;SDS011;35135;47.510;19.036;2022-12-24T16:51:45;1.38;;;0.98;;
35324;SDS011;35135;47.510;19.036;2022-12-24T16:54:11;1.20;;;0.98;;
35324;SDS011;35135;47.510;19.036;2022-12-24T16:56:41;2.13;;;1.33;;
35324;SDS011;35135;47.510;19.036;2022-12-24T16:59:25;2.10;;;1.27;;
35324;SDS011;35135;47.510;19.036;2022-12-24T17:01:51;1.52;;;1.10;;
35324;SDS011;35135;47.510;19.036;2022-12-24T17:04:17;1.50;;;0.85;;
35324;SDS011;35135;47.510;19.036;2022-12-24T17:06:43;1.85;;;0.98;;
35324;SDS011;35135;47.510;19.036;2022-12-24T17:09:09;1.42;;;0.90;;
35324;SDS011;35135;47.510;19.036;2022-12-24T17:11:36;1.55;;;0.70;;